sensor_id;sensor_type;location;lat;lon;timestamp;P1;durP1;ratioP1;P2;durP2;ratioP2
79143;SDS011;68551;47.484;19.092;2023-03-23T00:01:05;24.42;;;13.68;;
79143;SDS011;68551;47.484;19.092;2023-03-23T00:04:08;24.05;;;14.15;;
79143;SDS011;68551;47.484;19.092;2023-03-23T00:07:14;21.80;;;14.80;;
79143;SDS011;68551;47.484;19.092;2023-03-23T00:10:24;25.35;;;13.88;;
79143;SDS011;68551;47.484;19.092;2023-03-23T00:13:27;21.35;;;12.48;;
79143;SDS011;68551;47.484;19.092;2023-03-23T00:16:31;24.38;;;13.40;;
79143;SDS011;68551;47.484;19.092;2023-03-23T00:19:38;25.75;;;13.07;;
79143;SDS011;68551;47.484;19.092;2023-03-23T00:22:53;23.73;;;13.18;;
79143;SDS011;68551;47.484;19.092;2023-03-23T00:26:02;21.98;;;12.80;;
79143;SDS011;68551;47.484;19.092;2023-03-23T00:29:04;20.35;;;12.15;;
79143;SDS011;68551;47.484;19.092;2023-03-23T00:32:08;22.48;;;12.65;;
79143;SDS011;68551;47.484;19.092;2023-03-23T00:35:15;21.15;;;11.40;;
79143;SDS011;68551;47.484;19.092;2023-03-23T00:38:16;21.00;;;11.65;;
79143;SDS011;68551;47.484;19.092;2023-03-23T00:41:20;23.77;;;12.32;;
79143;SDS011;68551;47.484;19.092;2023-03-23T00:44:26;20.65;;;12.55;;
79143;SDS011;68551;47.484;19.092;2023-03-23T00:47:29;21.33;;;12.48;;
79143;SDS011;68551;47.484;19.092;2023-03-23T00:50:32;22.42;;;13.20;;
79143;SDS011;68551;47.484;19.092;2023-03-23T00:53:35;20.63;;;12.98;;
79143;SDS011;68551;47.484;19.092;2023-03-23T00:56:39;19.05;;;11.85;;
79143;SDS011;68551;47.484;19.092;2023-03-23T00:59:40;19.52;;;12.27;;
79143;SDS011;68551;47.484;19.092;2023-03-23T01:02:42;23.33;;;13.00;;
79143;SDS011;68551;47.484;19.092;2023-03-23T01:05:47;24.00;;;13.15;;
79143;SDS011;68551;47.484;19.092;2023-03-23T01:08:52;20.85;;;13.20;;
79143;SDS011;68551;47.484;19.092;2023-03-23T01:11:54;21.73;;;11.60;;
79143;SDS011;68551;47.484;19.092;2023-03-23T01:14:57;18.77;;;12.20;;
79143;SDS011;68551;47.484;19.092;2023-03-23T01:17:58;19.15;;;12.15;;
79143;SDS011;68551;47.484;19.092;2023-03-23T01:21:06;20.27;;;13.70;;
79143;SDS011;68551;47.484;19.092;2023-03-23T01:24:09;18.70;;;11.85;;
79143;SDS011;68551;47.484;19.092;2023-03-23T01:27:12;23.20;;;12.32;;
79143;SDS011;68551;47.484;19.092;2023-03-23T01:30:16;22.55;;;12.77;;
79143;SDS011;68551;47.484;19.092;2023-03-23T01:33:17;19.20;;;12.32;;
79143;SDS011;68551;47.484;19.092;2023-03-23T01:36:20;19.95;;;12.32;;
79143;SDS011;68551;47.484;19.092;2023-03-23T01:39:28;21.67;;;12.13;;
79143;SDS011;68551;47.484;19.092;2023-03-23T01:42:31;21.17;;;12.75;;
79143;SDS011;68551;47.484;19.092;2023-03-23T01:48:37;21.30;;;12.05;;
79143;SDS011;68551;47.484;19.092;2023-03-23T01:51:44;23.08;;;13.65;;
79143;SDS011;68551;47.484;19.092;2023-03-23T01:54:54;25.00;;;14.25;;
79143;SDS011;68551;47.484;19.092;2023-03-23T01:58:01;25.15;;;13.20;;
79143;SDS011;68551;47.484;19.092;2023-03-23T02:01:06;21.42;;;14.15;;
79143;SDS011;68551;47.484;19.092;2023-03-23T02:04:15;23.70;;;13.80;;
79143;SDS011;68551;47.484;19.092;2023-03-23T02:07:18;23.08;;;13.80;;
79143;SDS011;68551;47.484;19.092;2023-03-23T02:10:27;24.38;;;14.32;;
79143;SDS011;68551;47.484;19.092;2023-03-23T02:13:31;23.38;;;14.05;;
79143;SDS011;68551;47.484;19.092;2023-03-23T02:16:54;21.92;;;12.18;;
79143;SDS011;68551;47.484;19.092;2023-03-23T02:26:55;25.05;;;13.75;;
79143;SDS011;68551;47.484;19.092;2023-03-23T02:36:49;23.15;;;13.80;;
79143;SDS011;68551;47.484;19.092;2023-03-23T02:43:16;21.50;;;12.75;;
79143;SDS011;68551;47.484;19.092;2023-03-23T02:46:25;22.98;;;13.48;;
79143;SDS011;68551;47.484;19.092;2023-03-23T02:49:31;22.90;;;13.80;;
79143;SDS011;68551;47.484;19.092;2023-03-23T02:52:39;25.95;;;14.60;;
79143;SDS011;68551;47.484;19.092;2023-03-23T02:55:42;21.17;;;13.15;;
79143;SDS011;68551;47.484;19.092;2023-03-23T02:58:50;22.60;;;13.52;;
79143;SDS011;68551;47.484;19.092;2023-03-23T03:01:53;22.65;;;13.57;;
79143;SDS011;68551;47.484;19.092;2023-03-23T03:11:49;19.15;;;12.82;;
79143;SDS011;68551;47.484;19.092;2023-03-23T03:15:06;23.55;;;14.32;;
79143;SDS011;68551;47.484;19.092;2023-03-23T03:18:27;21.73;;;13.88;;
79143;SDS011;68551;47.484;19.092;2023-03-23T03:21:43;22.10;;;13.60;;
79143;SDS011;68551;47.484;19.092;2023-03-23T03:24:48;25.58;;;15.45;;
79143;SDS011;68551;47.484;19.092;2023-03-23T03:28:00;22.88;;;13.98;;
79143;SDS011;68551;47.484;19.092;2023-03-23T03:31:18;24.48;;;14.13;;
79143;SDS011;68551;47.484;19.092;2023-03-23T03:34:22;23.02;;;14.00;;
79143;SDS011;68551;47.484;19.092;2023-03-23T03:37:25;19.92;;;12.75;;
79143;SDS011;68551;47.484;19.092;2023-03-23T03:40:28;20.95;;;13.90;;
79143;SDS011;68551;47.484;19.092;2023-03-23T03:43:29;24.48;;;13.35;;
79143;SDS011;68551;47.484;19.092;2023-03-23T03:46:30;26.63;;;14.80;;
79143;SDS011;68551;47.484;19.092;2023-03-23T03:49:34;27.42;;;13.80;;
79143;SDS011;68551;47.484;19.092;2023-03-23T03:52:39;21.50;;;14.40;;
79143;SDS011;68551;47.484;19.092;2023-03-23T03:55:41;24.45;;;14.32;;
79143;SDS011;68551;47.484;19.092;2023-03-23T03:58:50;22.67;;;14.07;;
79143;SDS011;68551;47.484;19.092;2023-03-23T04:02:00;23.92;;;15.60;;
79143;SDS011;68551;47.484;19.092;2023-03-23T04:05:04;23.85;;;15.55;;
79143;SDS011;68551;47.484;19.092;2023-03-23T04:08:07;21.10;;;13.95;;
79143;SDS011;68551;47.484;19.092;2023-03-23T04:11:12;24.45;;;15.20;;
79143;SDS011;68551;47.484;19.092;2023-03-23T04:14:14;29.00;;;14.70;;
79143;SDS011;68551;47.484;19.092;2023-03-23T04:17:19;21.90;;;14.75;;
79143;SDS011;68551;47.484;19.092;2023-03-23T04:20:21;26.60;;;14.98;;
79143;SDS011;68551;47.484;19.092;2023-03-23T04:23:26;25.90;;;14.93;;
79143;SDS011;68551;47.484;19.092;2023-03-23T04:26:39;24.30;;;14.65;;
79143;SDS011;68551;47.484;19.092;2023-03-23T04:29:54;22.98;;;14.40;;
79143;SDS011;68551;47.484;19.092;2023-03-23T04:33:15;25.90;;;15.63;;
79143;SDS011;68551;47.484;19.092;2023-03-23T04:36:21;28.95;;;16.05;;
79143;SDS011;68551;47.484;19.092;2023-03-23T04:39:37;27.23;;;15.27;;
79143;SDS011;68551;47.484;19.092;2023-03-23T04:42:43;22.88;;;14.63;;
79143;SDS011;68551;47.484;19.092;2023-03-23T04:46:08;26.30;;;14.48;;
79143;SDS011;68551;47.484;19.092;2023-03-23T04:49:16;26.48;;;14.52;;
79143;SDS011;68551;47.484;19.092;2023-03-23T04:52:29;24.58;;;15.07;;
79143;SDS011;68551;47.484;19.092;2023-03-23T04:55:33;26.42;;;15.18;;
79143;SDS011;68551;47.484;19.092;2023-03-23T04:58:43;24.75;;;15.43;;
79143;SDS011;68551;47.484;19.092;2023-03-23T05:02:07;26.42;;;14.15;;
79143;SDS011;68551;47.484;19.092;2023-03-23T05:05:10;22.30;;;15.40;;
79143;SDS011;68551;47.484;19.092;2023-03-23T05:08:13;28.63;;;15.40;;
79143;SDS011;68551;47.484;19.092;2023-03-23T05:11:16;24.70;;;16.98;;
79143;SDS011;68551;47.484;19.092;2023-03-23T05:14:18;24.02;;;15.55;;
79143;SDS011;68551;47.484;19.092;2023-03-23T05:17:28;24.98;;;14.50;;
79143;SDS011;68551;47.484;19.092;2023-03-23T05:20:37;26.33;;;14.75;;
79143;SDS011;68551;47.484;19.092;2023-03-23T05:23:44;23.80;;;15.77;;
79143;SDS011;68551;47.484;19.092;2023-03-23T05:26:52;25.98;;;15.00;;
79143;SDS011;68551;47.484;19.092;2023-03-23T05:30:02;22.88;;;14.05;;
79143;SDS011;68551;47.484;19.092;2023-03-23T05:33:06;25.77;;;14.93;;
79143;SDS011;68551;47.484;19.092;2023-03-23T05:36:21;23.77;;;14.20;;
79143;SDS011;68551;47.484;19.092;2023-03-23T05:39:43;24.00;;;14.90;;
79143;SDS011;68551;47.484;19.092;2023-03-23T05:42:51;27.33;;;15.32;;
79143;SDS011;68551;47.484;19.092;2023-03-23T05:46:05;23.15;;;13.57;;
79143;SDS011;68551;47.484;19.092;2023-03-23T05:49:11;25.08;;;14.90;;
79143;SDS011;68551;47.484;19.092;2023-03-23T05:52:15;22.70;;;13.20;;
79143;SDS011;68551;47.484;19.092;2023-03-23T05:55:16;21.40;;;12.25;;
79143;SDS011;68551;47.484;19.092;2023-03-23T05:58:24;18.05;;;11.85;;
79143;SDS011;68551;47.484;19.092;2023-03-23T06:01:26;19.30;;;12.45;;
79143;SDS011;68551;47.484;19.092;2023-03-23T06:04:28;17.08;;;10.40;;
79143;SDS011;68551;47.484;19.092;2023-03-23T06:10:48;17.15;;;11.20;;
79143;SDS011;68551;47.484;19.092;2023-03-23T06:13:50;20.13;;;11.38;;
79143;SDS011;68551;47.484;19.092;2023-03-23T06:16:54;22.42;;;11.68;;
79143;SDS011;68551;47.484;19.092;2023-03-23T06:20:00;22.42;;;13.05;;
79143;SDS011;68551;47.484;19.092;2023-03-23T06:23:01;19.30;;;13.82;;
79143;SDS011;68551;47.484;19.092;2023-03-23T06:26:07;26.52;;;14.65;;
79143;SDS011;68551;47.484;19.092;2023-03-23T06:29:10;17.50;;;12.52;;
79143;SDS011;68551;47.484;19.092;2023-03-23T06:32:16;19.67;;;11.65;;
79143;SDS011;68551;47.484;19.092;2023-03-23T06:35:19;21.35;;;12.20;;
79143;SDS011;68551;47.484;19.092;2023-03-23T06:38:43;20.42;;;11.15;;
79143;SDS011;68551;47.484;19.092;2023-03-23T06:41:48;18.55;;;11.20;;
79143;SDS011;68551;47.484;19.092;2023-03-23T06:44:50;17.98;;;10.93;;
79143;SDS011;68551;47.484;19.092;2023-03-23T06:47:55;15.57;;;10.50;;
79143;SDS011;68551;47.484;19.092;2023-03-23T06:50:57;14.52;;;10.60;;
79143;SDS011;68551;47.484;19.092;2023-03-23T06:54:02;14.52;;;9.88;;
79143;SDS011;68551;47.484;19.092;2023-03-23T06:57:08;17.20;;;10.70;;
79143;SDS011;68551;47.484;19.092;2023-03-23T07:00:10;19.38;;;10.50;;
79143;SDS011;68551;47.484;19.092;2023-03-23T07:03:14;16.73;;;11.48;;
79143;SDS011;68551;47.484;19.092;2023-03-23T07:06:17;16.17;;;11.27;;
79143;SDS011;68551;47.484;19.092;2023-03-23T07:09:24;16.67;;;11.60;;
79143;SDS011;68551;47.484;19.092;2023-03-23T07:12:27;18.50;;;11.82;;
79143;SDS011;68551;47.484;19.092;2023-03-23T07:15:30;14.25;;;11.10;;
79143;SDS011;68551;47.484;19.092;2023-03-23T07:18:32;15.30;;;11.27;;
79143;SDS011;68551;47.484;19.092;2023-03-23T07:21:34;16.25;;;11.27;;
79143;SDS011;68551;47.484;19.092;2023-03-23T07:24:36;17.15;;;12.27;;
79143;SDS011;68551;47.484;19.092;2023-03-23T07:28:01;17.50;;;12.45;;
79143;SDS011;68551;47.484;19.092;2023-03-23T07:31:07;19.58;;;14.30;;
79143;SDS011;68551;47.484;19.092;2023-03-23T07:34:10;19.50;;;12.80;;
79143;SDS011;68551;47.484;19.092;2023-03-23T07:37:34;17.13;;;12.98;;
79143;SDS011;68551;47.484;19.092;2023-03-23T07:40:37;15.63;;;12.70;;
79143;SDS011;68551;47.484;19.092;2023-03-23T07:43:50;17.05;;;12.50;;
79143;SDS011;68551;47.484;19.092;2023-03-23T07:46:58;17.15;;;12.82;;
79143;SDS011;68551;47.484;19.092;2023-03-23T07:50:06;21.63;;;13.25;;
79143;SDS011;68551;47.484;19.092;2023-03-23T07:53:16;16.50;;;12.23;;
79143;SDS011;68551;47.484;19.092;2023-03-23T07:56:28;19.95;;;12.68;;
79143;SDS011;68551;47.484;19.092;2023-03-23T07:59:41;18.13;;;13.57;;
79143;SDS011;68551;47.484;19.092;2023-03-23T08:02:53;20.00;;;14.48;;
79143;SDS011;68551;47.484;19.092;2023-03-23T08:06:32;18.55;;;14.07;;
79143;SDS011;68551;47.484;19.092;2023-03-23T08:09:49;19.73;;;14.25;;
79143;SDS011;68551;47.484;19.092;2023-03-23T08:13:04;18.65;;;14.15;;
79143;SDS011;68551;47.484;19.092;2023-03-23T08:16:15;21.00;;;13.95;;
79143;SDS011;68551;47.484;19.092;2023-03-23T08:19:38;22.17;;;13.98;;
79143;SDS011;68551;47.484;19.092;2023-03-23T08:23:02;18.63;;;13.43;;
79143;SDS011;68551;47.484;19.092;2023-03-23T08:26:12;16.90;;;11.70;;
79143;SDS011;68551;47.484;19.092;2023-03-23T08:29:53;22.85;;;13.32;;
79143;SDS011;68551;47.484;19.092;2023-03-23T08:33:29;21.40;;;13.40;;
79143;SDS011;68551;47.484;19.092;2023-03-23T08:36:53;15.95;;;11.75;;
79143;SDS011;68551;47.484;19.092;2023-03-23T08:40:17;18.50;;;13.07;;
79143;SDS011;68551;47.484;19.092;2023-03-23T08:43:38;16.85;;;13.00;;
79143;SDS011;68551;47.484;19.092;2023-03-23T08:47:04;16.50;;;12.88;;
79143;SDS011;68551;47.484;19.092;2023-03-23T08:50:29;18.25;;;13.50;;
79143;SDS011;68551;47.484;19.092;2023-03-23T08:54:00;16.63;;;12.40;;
79143;SDS011;68551;47.484;19.092;2023-03-23T08:57:32;15.55;;;12.23;;
79143;SDS011;68551;47.484;19.092;2023-03-23T09:01:12;18.10;;;12.70;;
79143;SDS011;68551;47.484;19.092;2023-03-23T09:04:34;15.07;;;12.15;;
79143;SDS011;68551;47.484;19.092;2023-03-23T09:08:07;16.55;;;11.77;;
79143;SDS011;68551;47.484;19.092;2023-03-23T09:11:09;14.90;;;11.48;;
79143;SDS011;68551;47.484;19.092;2023-03-23T09:14:11;19.42;;;12.57;;
79143;SDS011;68551;47.484;19.092;2023-03-23T09:17:12;16.98;;;11.85;;
79143;SDS011;68551;47.484;19.092;2023-03-23T09:20:22;15.07;;;11.77;;
79143;SDS011;68551;47.484;19.092;2023-03-23T09:23:27;16.55;;;11.38;;
79143;SDS011;68551;47.484;19.092;2023-03-23T09:26:29;13.45;;;10.23;;
79143;SDS011;68551;47.484;19.092;2023-03-23T09:29:34;13.73;;;10.07;;
79143;SDS011;68551;47.484;19.092;2023-03-23T09:32:38;13.88;;;10.88;;
79143;SDS011;68551;47.484;19.092;2023-03-23T09:35:44;13.70;;;10.15;;
79143;SDS011;68551;47.484;19.092;2023-03-23T09:38:45;14.25;;;9.85;;
79143;SDS011;68551;47.484;19.092;2023-03-23T09:49:01;10.52;;;8.25;;
79143;SDS011;68551;47.484;19.092;2023-03-23T09:52:15;12.15;;;8.82;;
79143;SDS011;68551;47.484;19.092;2023-03-23T09:55:20;11.45;;;8.10;;
79143;SDS011;68551;47.484;19.092;2023-03-23T09:58:25;11.98;;;8.65;;
79143;SDS011;68551;47.484;19.092;2023-03-23T10:01:36;12.13;;;8.73;;
79143;SDS011;68551;47.484;19.092;2023-03-23T10:04:46;12.57;;;9.00;;
79143;SDS011;68551;47.484;19.092;2023-03-23T10:07:47;11.45;;;8.60;;
79143;SDS011;68551;47.484;19.092;2023-03-23T10:10:51;16.20;;;8.25;;
79143;SDS011;68551;47.484;19.092;2023-03-23T10:20:55;13.60;;;8.15;;
79143;SDS011;68551;47.484;19.092;2023-03-23T10:24:08;13.05;;;8.30;;
79143;SDS011;68551;47.484;19.092;2023-03-23T10:27:23;11.10;;;7.78;;
79143;SDS011;68551;47.484;19.092;2023-03-23T10:34:05;11.73;;;7.15;;
79143;SDS011;68551;47.484;19.092;2023-03-23T10:37:32;11.43;;;7.15;;
79143;SDS011;68551;47.484;19.092;2023-03-23T10:40:43;9.68;;;6.35;;
79143;SDS011;68551;47.484;19.092;2023-03-23T10:43:50;9.73;;;6.60;;
79143;SDS011;68551;47.484;19.092;2023-03-23T10:50:13;8.95;;;5.85;;
79143;SDS011;68551;47.484;19.092;2023-03-23T10:53:19;10.55;;;6.60;;
79143;SDS011;68551;47.484;19.092;2023-03-23T10:56:25;11.40;;;5.75;;
79143;SDS011;68551;47.484;19.092;2023-03-23T10:59:30;10.85;;;6.57;;
79143;SDS011;68551;47.484;19.092;2023-03-23T11:02:36;10.50;;;6.45;;
79143;SDS011;68551;47.484;19.092;2023-03-23T11:05:41;8.75;;;5.07;;
79143;SDS011;68551;47.484;19.092;2023-03-23T11:09:11;9.20;;;5.40;;
79143;SDS011;68551;47.484;19.092;2023-03-23T11:12:19;9.30;;;5.85;;
79143;SDS011;68551;47.484;19.092;2023-03-23T11:15:31;8.98;;;5.47;;
79143;SDS011;68551;47.484;19.092;2023-03-23T11:18:41;8.35;;;4.60;;
79143;SDS011;68551;47.484;19.092;2023-03-23T11:21:47;9.05;;;5.57;;
79143;SDS011;68551;47.484;19.092;2023-03-23T11:25:00;7.60;;;4.72;;
79143;SDS011;68551;47.484;19.092;2023-03-23T11:28:07;8.68;;;4.85;;
79143;SDS011;68551;47.484;19.092;2023-03-23T11:31:12;21.67;;;11.50;;
79143;SDS011;68551;47.484;19.092;2023-03-23T11:40:19;6.53;;;4.32;;
79143;SDS011;68551;47.484;19.092;2023-03-23T11:43:23;6.18;;;4.28;;
79143;SDS011;68551;47.484;19.092;2023-03-23T11:46:35;5.32;;;4.00;;
79143;SDS011;68551;47.484;19.092;2023-03-23T11:49:50;6.28;;;3.22;;
79143;SDS011;68551;47.484;19.092;2023-03-23T11:59:18;4.75;;;3.53;;
79143;SDS011;68551;47.484;19.092;2023-03-23T12:02:33;6.85;;;4.20;;
79143;SDS011;68551;47.484;19.092;2023-03-23T12:05:58;7.55;;;3.78;;
79143;SDS011;68551;47.484;19.092;2023-03-23T12:12:16;6.45;;;3.95;;
79143;SDS011;68551;47.484;19.092;2023-03-23T12:15:43;7.80;;;4.30;;
79143;SDS011;68551;47.484;19.092;2023-03-23T12:22:08;7.78;;;4.10;;
79143;SDS011;68551;47.484;19.092;2023-03-23T12:48:46;4.80;;;3.20;;
79143;SDS011;68551;47.484;19.092;2023-03-23T12:52:00;7.25;;;3.95;;
79143;SDS011;68551;47.484;19.092;2023-03-23T12:55:16;10.65;;;3.90;;
79143;SDS011;68551;47.484;19.092;2023-03-23T12:58:38;6.28;;;3.80;;
79143;SDS011;68551;47.484;19.092;2023-03-23T13:01:47;6.50;;;3.63;;
79143;SDS011;68551;47.484;19.092;2023-03-23T13:05:07;5.68;;;3.95;;
79143;SDS011;68551;47.484;19.092;2023-03-23T13:08:16;6.43;;;3.97;;
79143;SDS011;68551;47.484;19.092;2023-03-23T13:11:32;9.75;;;3.47;;
79143;SDS011;68551;47.484;19.092;2023-03-23T13:24:20;6.82;;;3.90;;
79143;SDS011;68551;47.484;19.092;2023-03-23T13:27:26;4.40;;;2.75;;
79143;SDS011;68551;47.484;19.092;2023-03-23T13:30:30;5.45;;;3.15;;
79143;SDS011;68551;47.484;19.092;2023-03-23T13:33:35;4.93;;;3.25;;
79143;SDS011;68551;47.484;19.092;2023-03-23T13:36:41;6.07;;;3.38;;
79143;SDS011;68551;47.484;19.092;2023-03-23T13:42:51;4.80;;;3.30;;
79143;SDS011;68551;47.484;19.092;2023-03-23T13:46:05;4.85;;;3.05;;
79143;SDS011;68551;47.484;19.092;2023-03-23T13:49:28;4.15;;;3.28;;
79143;SDS011;68551;47.484;19.092;2023-03-23T13:55:48;6.35;;;3.92;;
79143;SDS011;68551;47.484;19.092;2023-03-23T14:02:28;5.45;;;3.63;;
79143;SDS011;68551;47.484;19.092;2023-03-23T14:05:38;5.53;;;3.63;;
79143;SDS011;68551;47.484;19.092;2023-03-23T14:08:45;6.13;;;4.75;;
79143;SDS011;68551;47.484;19.092;2023-03-23T14:11:54;5.10;;;3.58;;
79143;SDS011;68551;47.484;19.092;2023-03-23T14:15:00;7.47;;;3.92;;
79143;SDS011;68551;47.484;19.092;2023-03-23T14:18:13;4.32;;;3.30;;
79143;SDS011;68551;47.484;19.092;2023-03-23T14:21:21;6.65;;;3.60;;
79143;SDS011;68551;47.484;19.092;2023-03-23T14:24:28;5.82;;;3.53;;
79143;SDS011;68551;47.484;19.092;2023-03-23T14:27:34;5.82;;;4.00;;
79143;SDS011;68551;47.484;19.092;2023-03-23T14:30:36;5.63;;;3.95;;
79143;SDS011;68551;47.484;19.092;2023-03-23T14:33:37;6.82;;;3.50;;
79143;SDS011;68551;47.484;19.092;2023-03-23T14:36:44;6.90;;;3.70;;
79143;SDS011;68551;47.484;19.092;2023-03-23T14:39:52;4.78;;;3.40;;
79143;SDS011;68551;47.484;19.092;2023-03-23T14:42:55;6.78;;;3.85;;
79143;SDS011;68551;47.484;19.092;2023-03-23T14:45:59;5.90;;;3.30;;
79143;SDS011;68551;47.484;19.092;2023-03-23T14:49:03;6.20;;;3.88;;
79143;SDS011;68551;47.484;19.092;2023-03-23T14:52:10;5.53;;;3.40;;
79143;SDS011;68551;47.484;19.092;2023-03-23T14:55:19;7.05;;;4.05;;
79143;SDS011;68551;47.484;19.092;2023-03-23T14:58:23;8.13;;;3.63;;
79143;SDS011;68551;47.484;19.092;2023-03-23T15:01:28;4.93;;;3.25;;
79143;SDS011;68551;47.484;19.092;2023-03-23T15:04:37;4.03;;;3.15;;
79143;SDS011;68551;47.484;19.092;2023-03-23T15:07:45;8.05;;;3.60;;
79143;SDS011;68551;47.484;19.092;2023-03-23T15:10:54;4.38;;;3.55;;
79143;SDS011;68551;47.484;19.092;2023-03-23T15:14:07;5.43;;;3.70;;
79143;SDS011;68551;47.484;19.092;2023-03-23T15:17:22;5.18;;;3.15;;
79143;SDS011;68551;47.484;19.092;2023-03-23T15:23:49;6.15;;;3.38;;
79143;SDS011;68551;47.484;19.092;2023-03-23T15:26:50;14.18;;;3.72;;
79143;SDS011;68551;47.484;19.092;2023-03-23T15:29:56;6.18;;;2.97;;
79143;SDS011;68551;47.484;19.092;2023-03-23T15:33:03;5.40;;;3.30;;
79143;SDS011;68551;47.484;19.092;2023-03-23T15:36:16;5.53;;;3.60;;
79143;SDS011;68551;47.484;19.092;2023-03-23T15:39:18;9.23;;;3.58;;
79143;SDS011;68551;47.484;19.092;2023-03-23T15:45:28;5.22;;;3.15;;
79143;SDS011;68551;47.484;19.092;2023-03-23T15:48:29;6.25;;;3.47;;
79143;SDS011;68551;47.484;19.092;2023-03-23T15:51:47;6.25;;;3.50;;
79143;SDS011;68551;47.484;19.092;2023-03-23T15:54:50;4.43;;;3.60;;
79143;SDS011;68551;47.484;19.092;2023-03-23T15:57:55;6.00;;;3.53;;
79143;SDS011;68551;47.484;19.092;2023-03-23T16:00:59;5.15;;;3.25;;
79143;SDS011;68551;47.484;19.092;2023-03-23T16:04:16;6.22;;;3.35;;
79143;SDS011;68551;47.484;19.092;2023-03-23T16:07:23;6.82;;;3.58;;
79143;SDS011;68551;47.484;19.092;2023-03-23T16:10:28;5.95;;;3.15;;
79143;SDS011;68551;47.484;19.092;2023-03-23T16:13:31;4.97;;;3.63;;
79143;SDS011;68551;47.484;19.092;2023-03-23T16:16:35;5.80;;;3.20;;
79143;SDS011;68551;47.484;19.092;2023-03-23T16:19:40;5.30;;;3.30;;
79143;SDS011;68551;47.484;19.092;2023-03-23T16:22:45;5.43;;;3.45;;
79143;SDS011;68551;47.484;19.092;2023-03-23T16:25:50;7.28;;;3.15;;
79143;SDS011;68551;47.484;19.092;2023-03-23T16:28:57;5.53;;;3.17;;
79143;SDS011;68551;47.484;19.092;2023-03-23T16:32:18;5.43;;;2.95;;
79143;SDS011;68551;47.484;19.092;2023-03-23T16:35:20;4.72;;;2.97;;
79143;SDS011;68551;47.484;19.092;2023-03-23T16:38:25;6.32;;;4.07;;
79143;SDS011;68551;47.484;19.092;2023-03-23T16:41:30;6.60;;;3.25;;
79143;SDS011;68551;47.484;19.092;2023-03-23T16:44:33;8.38;;;3.47;;
79143;SDS011;68551;47.484;19.092;2023-03-23T16:47:38;5.45;;;3.33;;
79143;SDS011;68551;47.484;19.092;2023-03-23T16:50:41;6.95;;;4.00;;
79143;SDS011;68551;47.484;19.092;2023-03-23T16:53:49;5.45;;;3.10;;
79143;SDS011;68551;47.484;19.092;2023-03-23T16:56:55;6.55;;;3.45;;
79143;SDS011;68551;47.484;19.092;2023-03-23T16:59:57;6.93;;;3.22;;
79143;SDS011;68551;47.484;19.092;2023-03-23T17:03:03;8.88;;;3.60;;
79143;SDS011;68551;47.484;19.092;2023-03-23T17:06:07;4.43;;;3.15;;
79143;SDS011;68551;47.484;19.092;2023-03-23T17:09:12;7.55;;;3.38;;
79143;SDS011;68551;47.484;19.092;2023-03-23T17:12:14;4.38;;;3.30;;
79143;SDS011;68551;47.484;19.092;2023-03-23T17:15:17;6.55;;;3.60;;
79143;SDS011;68551;47.484;19.092;2023-03-23T17:18:25;9.07;;;4.20;;
79143;SDS011;68551;47.484;19.092;2023-03-23T17:21:32;10.02;;;5.57;;
79143;SDS011;68551;47.484;19.092;2023-03-23T17:24:35;8.20;;;5.20;;
79143;SDS011;68551;47.484;19.092;2023-03-23T17:27:38;7.82;;;4.65;;
79143;SDS011;68551;47.484;19.092;2023-03-23T17:30:42;9.38;;;4.97;;
79143;SDS011;68551;47.484;19.092;2023-03-23T17:33:47;8.45;;;4.88;;
79143;SDS011;68551;47.484;19.092;2023-03-23T17:36:50;6.32;;;4.35;;
79143;SDS011;68551;47.484;19.092;2023-03-23T17:39:55;8.38;;;4.75;;
79143;SDS011;68551;47.484;19.092;2023-03-23T17:42:57;8.07;;;4.82;;
79143;SDS011;68551;47.484;19.092;2023-03-23T17:45:59;10.35;;;4.90;;
79143;SDS011;68551;47.484;19.092;2023-03-23T17:49:07;9.80;;;5.10;;
79143;SDS011;68551;47.484;19.092;2023-03-23T17:52:12;7.88;;;4.80;;
79143;SDS011;68551;47.484;19.092;2023-03-23T17:55:17;10.73;;;5.43;;
79143;SDS011;68551;47.484;19.092;2023-03-23T17:58:22;8.90;;;4.10;;
79143;SDS011;68551;47.484;19.092;2023-03-23T18:01:29;8.13;;;5.22;;
79143;SDS011;68551;47.484;19.092;2023-03-23T18:04:31;12.02;;;5.82;;
79143;SDS011;68551;47.484;19.092;2023-03-23T18:07:36;11.52;;;5.53;;
79143;SDS011;68551;47.484;19.092;2023-03-23T18:10:40;9.95;;;4.90;;
79143;SDS011;68551;47.484;19.092;2023-03-23T18:13:43;11.88;;;5.70;;
79143;SDS011;68551;47.484;19.092;2023-03-23T18:16:46;10.40;;;5.20;;
79143;SDS011;68551;47.484;19.092;2023-03-23T18:19:51;11.45;;;5.10;;
79143;SDS011;68551;47.484;19.092;2023-03-23T18:22:53;12.88;;;5.28;;
79143;SDS011;68551;47.484;19.092;2023-03-23T18:25:56;9.60;;;5.30;;
79143;SDS011;68551;47.484;19.092;2023-03-23T18:29:01;7.53;;;5.20;;
79143;SDS011;68551;47.484;19.092;2023-03-23T18:32:03;12.85;;;5.40;;
79143;SDS011;68551;47.484;19.092;2023-03-23T18:35:11;15.05;;;5.85;;
79143;SDS011;68551;47.484;19.092;2023-03-23T18:38:16;11.73;;;5.53;;
79143;SDS011;68551;47.484;19.092;2023-03-23T18:41:24;12.82;;;5.85;;
79143;SDS011;68551;47.484;19.092;2023-03-23T18:44:27;11.65;;;6.70;;
79143;SDS011;68551;47.484;19.092;2023-03-23T18:47:34;11.25;;;6.03;;
79143;SDS011;68551;47.484;19.092;2023-03-23T18:50:40;18.80;;;6.93;;
79143;SDS011;68551;47.484;19.092;2023-03-23T18:53:49;15.52;;;7.25;;
79143;SDS011;68551;47.484;19.092;2023-03-23T18:56:51;18.88;;;6.80;;
79143;SDS011;68551;47.484;19.092;2023-03-23T18:59:53;10.73;;;6.65;;
79143;SDS011;68551;47.484;19.092;2023-03-23T19:02:56;13.52;;;7.30;;
79143;SDS011;68551;47.484;19.092;2023-03-23T19:06:02;16.38;;;7.35;;
79143;SDS011;68551;47.484;19.092;2023-03-23T19:09:06;13.70;;;6.72;;
79143;SDS011;68551;47.484;19.092;2023-03-23T19:12:09;22.75;;;8.18;;
79143;SDS011;68551;47.484;19.092;2023-03-23T19:15:13;18.35;;;7.70;;
79143;SDS011;68551;47.484;19.092;2023-03-23T19:18:15;14.55;;;8.05;;
79143;SDS011;68551;47.484;19.092;2023-03-23T19:21:20;15.07;;;7.93;;
79143;SDS011;68551;47.484;19.092;2023-03-23T19:24:27;15.35;;;8.70;;
79143;SDS011;68551;47.484;19.092;2023-03-23T19:27:32;14.65;;;9.00;;
79143;SDS011;68551;47.484;19.092;2023-03-23T19:30:57;16.50;;;7.93;;
79143;SDS011;68551;47.484;19.092;2023-03-23T19:34:00;15.32;;;9.02;;
79143;SDS011;68551;47.484;19.092;2023-03-23T19:37:04;16.38;;;8.93;;
79143;SDS011;68551;47.484;19.092;2023-03-23T19:40:12;21.20;;;11.63;;
79143;SDS011;68551;47.484;19.092;2023-03-23T19:43:37;13.95;;;9.23;;
79143;SDS011;68551;47.484;19.092;2023-03-23T19:46:42;15.32;;;8.65;;
79143;SDS011;68551;47.484;19.092;2023-03-23T19:49:49;17.10;;;9.70;;
79143;SDS011;68551;47.484;19.092;2023-03-23T19:52:59;14.45;;;9.27;;
79143;SDS011;68551;47.484;19.092;2023-03-23T19:56:02;14.95;;;9.98;;
79143;SDS011;68551;47.484;19.092;2023-03-23T19:59:11;20.33;;;9.63;;
79143;SDS011;68551;47.484;19.092;2023-03-23T20:02:17;19.38;;;9.95;;
79143;SDS011;68551;47.484;19.092;2023-03-23T20:05:20;19.05;;;10.20;;
79143;SDS011;68551;47.484;19.092;2023-03-23T20:08:25;23.17;;;10.73;;
79143;SDS011;68551;47.484;19.092;2023-03-23T20:11:28;23.10;;;11.15;;
79143;SDS011;68551;47.484;19.092;2023-03-23T20:14:33;21.73;;;11.55;;